createdAt,value
2019-02-15T00:02:29.554Z,11.33
2019-02-15T00:05:14.729Z,16.50
2019-02-15T00:07:57.999Z,13.07
2019-02-15T00:10:40.734Z,10.73
2019-02-15T00:13:24.758Z,13.93
2019-02-15T00:16:09.709Z,11.97
2019-02-15T00:18:53.331Z,11.70
2019-02-15T00:22:00.856Z,11.70
2019-02-15T00:24:44.269Z,12.00
2019-02-15T00:27:27.101Z,18.67
2019-02-15T00:30:11.726Z,12.37
2019-02-15T00:36:13.232Z,15.77
2019-02-15T00:38:58.080Z,12.50
2019-02-15T00:41:43.650Z,14.17
2019-02-15T00:44:27.540Z,11.07
2019-02-15T00:47:10.790Z,10.77
2019-02-15T00:53:57.702Z,17.27
2019-02-15T00:56:53.083Z,12.70
2019-02-15T01:00:00.997Z,13.40
2019-02-15T01:03:03.358Z,14.40
2019-02-15T01:08:59.369Z,13.00
2019-02-15T01:14:46.730Z,15.50
2019-02-15T01:17:31.918Z,12.73
2019-02-15T01:20:17.028Z,12.47
2019-02-15T01:23:01.842Z,13.03
2019-02-15T01:32:17.335Z,12.37
2019-02-15T01:35:21.115Z,16.27
2019-02-15T01:38:23.293Z,15.03
2019-02-15T01:41:21.017Z,13.17
2019-02-15T01:44:25.897Z,9.57
2019-02-15T01:47:12.571Z,14.57
2019-02-15T01:49:56.246Z,15.57
2019-02-15T01:52:39.607Z,16.93
2019-02-15T01:55:23.241Z,16.73
2019-02-15T01:58:05.943Z,11.10
2019-02-15T02:00:48.594Z,14.47
2019-02-15T02:03:33.846Z,17.90
2019-02-15T02:06:19.110Z,16.07
2019-02-15T02:09:02.190Z,11.15
2019-02-15T02:11:46.622Z,15.23
2019-02-15T02:14:29.653Z,12.93
2019-02-15T02:17:12.587Z,14.10
2019-02-15T02:19:55.289Z,13.37
2019-02-15T02:22:38.402Z,12.10
2019-02-15T02:25:22.413Z,10.93
2019-02-15T02:28:05.132Z,12.50
2019-02-15T02:30:48.417Z,14.73
2019-02-15T02:33:33.248Z,12.80
2019-02-15T02:36:18.157Z,15.63
2019-02-15T02:39:03.222Z,12.90
2019-02-15T02:41:48.840Z,13.43
2019-02-15T02:44:33.405Z,12.07
2019-02-15T02:47:16.059Z,12.60
2019-02-15T02:49:59.026Z,11.93
2019-02-15T02:52:42.892Z,13.27
2019-02-15T02:55:27.378Z,15.17
2019-02-15T02:58:10.734Z,14.73
2019-02-15T03:00:55.689Z,17.33
2019-02-15T03:03:39.267Z,15.87
2019-02-15T03:06:24.408Z,11.07
2019-02-15T03:09:09.299Z,13.50
2019-02-15T03:11:52.190Z,13.03
2019-02-15T03:14:36.158Z,14.27
2019-02-15T03:17:20.747Z,12.57
2019-02-15T03:20:03.601Z,12.53
2019-02-15T03:22:46.906Z,14.93
2019-02-15T03:25:29.843Z,12.60
2019-02-15T03:28:12.808Z,10.60
2019-02-15T03:30:55.990Z,14.23
2019-02-15T03:33:39.187Z,13.77
2019-02-15T03:36:23.121Z,12.73
2019-02-15T03:42:14.075Z,16.73
2019-02-15T03:44:56.958Z,14.83
2019-02-15T03:47:40.431Z,15.47
2019-02-15T03:50:25.873Z,16.90
2019-02-15T03:53:10.689Z,13.07
2019-02-15T03:55:55.373Z,14.93
2019-02-15T03:58:38.696Z,13.37
2019-02-15T04:04:04.858Z,15.90
2019-02-15T04:06:49.644Z,15.63
2019-02-15T04:09:32.606Z,16.13
2019-02-15T04:12:15.392Z,17.40
2019-02-15T04:14:59.048Z,17.87
2019-02-15T04:17:44.496Z,17.80
2019-02-15T04:20:29.638Z,17.50
2019-02-15T04:23:12.927Z,23.73
2019-02-15T04:25:55.621Z,17.33
2019-02-15T04:28:38.534Z,15.90
2019-02-15T04:31:25.088Z,17.17
2019-02-15T04:34:07.878Z,17.37
2019-02-15T04:36:52.510Z,20.03
2019-02-15T04:39:35.800Z,13.68
2019-02-15T04:42:18.454Z,20.10
2019-02-15T04:45:01.908Z,13.13
2019-02-15T04:47:45.429Z,15.10
2019-02-15T04:50:28.160Z,14.83
2019-02-15T04:53:13.326Z,17.70
2019-02-15T04:55:57.839Z,13.53
2019-02-15T04:58:41.250Z,15.63
2019-02-15T05:01:25.149Z,20.97
2019-02-15T05:04:08.395Z,19.80
2019-02-15T05:06:52.134Z,23.57
2019-02-15T05:09:34.950Z,23.37
2019-02-15T05:12:18.844Z,23.73
2019-02-15T05:15:03.242Z,21.37
2019-02-15T05:17:46.521Z,21.10
2019-02-15T05:23:13.889Z,20.03
2019-02-15T05:25:56.769Z,21.97
2019-02-15T05:28:40.686Z,20.97
2019-02-15T05:31:27.195Z,22.20
2019-02-15T05:34:09.844Z,21.73
2019-02-15T05:36:55.391Z,21.30
2019-02-15T05:39:38.185Z,17.53
2019-02-15T05:42:22.854Z,23.40
2019-02-15T05:45:05.734Z,20.03
2019-02-15T05:47:49.082Z,20.37
2019-02-15T05:50:32.660Z,18.80
2019-02-15T05:53:15.714Z,18.60
2019-02-15T05:55:58.773Z,17.33
2019-02-15T05:58:41.505Z,18.73
2019-02-15T06:01:25.294Z,18.53
2019-02-15T06:04:12.029Z,17.57
2019-02-15T06:06:55.320Z,15.27
2019-02-15T06:09:42.059Z,17.67
2019-02-15T06:12:24.929Z,18.57
2019-02-15T06:15:14.846Z,19.47
2019-02-15T06:17:53.699Z,18.30
2019-02-15T06:20:39.252Z,23.70
2019-02-15T06:23:22.029Z,18.13
2019-02-15T06:26:04.820Z,15.77
2019-02-15T06:28:48.634Z,16.77
2019-02-15T06:31:31.248Z,22.02
2019-02-15T06:34:14.201Z,19.87
2019-02-15T06:36:57.339Z,20.13
2019-02-15T06:39:40.132Z,18.93
2019-02-15T06:42:23.614Z,22.97
2019-02-15T06:45:06.329Z,25.20
2019-02-15T06:47:50.887Z,20.07
2019-02-15T06:50:34.105Z,27.33
2019-02-15T06:53:17.543Z,21.57
2019-02-15T06:56:00.930Z,23.63
2019-02-15T07:02:30.669Z,27.03
2019-02-15T07:05:32.125Z,21.63
2019-02-15T07:08:36.669Z,19.50
2019-02-15T07:11:19.965Z,21.13
2019-02-15T07:14:02.813Z,22.03
2019-02-15T07:16:46.499Z,21.90
2019-02-15T07:19:29.136Z,18.20
2019-02-15T07:22:12.500Z,21.13
2019-02-15T07:24:55.280Z,17.53
2019-02-15T07:27:38.383Z,15.98
2019-02-15T07:30:21.637Z,16.10
2019-02-15T07:33:04.231Z,17.67
2019-02-15T07:35:47.742Z,20.70
2019-02-15T07:38:30.891Z,17.70
2019-02-15T07:41:14.300Z,18.10
2019-02-15T07:43:59.477Z,15.83
2019-02-15T07:46:44.712Z,24.50
2019-02-15T07:49:27.953Z,22.00
2019-02-15T07:52:12.239Z,17.27
2019-02-15T07:54:54.875Z,19.53
2019-02-15T07:57:37.676Z,16.33
2019-02-15T08:00:22.346Z,18.87
2019-02-15T08:03:05.154Z,13.40
2019-02-15T08:05:48.300Z,25.90
2019-02-15T08:08:30.849Z,14.20
2019-02-15T08:11:17.557Z,16.73
2019-02-15T08:14:00.435Z,18.73
2019-02-15T08:16:44.083Z,15.87
2019-02-15T08:19:27.793Z,14.43
2019-02-15T08:22:10.612Z,14.20
2019-02-15T08:24:53.694Z,11.40
2019-02-15T08:27:36.453Z,12.23
2019-02-15T08:30:22.073Z,11.57
2019-02-15T08:33:05.165Z,13.27
2019-02-15T08:35:48.913Z,17.17
2019-02-15T08:38:32.216Z,10.63
2019-02-15T08:41:15.367Z,12.30
2019-02-15T08:43:58.859Z,17.57
2019-02-15T08:49:26.450Z,15.13
2019-02-15T08:52:09.613Z,16.37
2019-02-15T08:54:52.991Z,15.63
2019-02-15T08:57:38.572Z,13.97
2019-02-15T09:00:21.841Z,14.10
2019-02-15T09:03:04.803Z,11.75
2019-02-15T09:05:47.618Z,12.03
2019-02-15T09:08:30.733Z,14.07
2019-02-15T09:11:13.384Z,19.02
2019-02-15T09:13:58.398Z,14.70
2019-02-15T09:16:43.635Z,18.92
2019-02-15T09:19:28.059Z,10.98
2019-02-15T09:22:11.178Z,11.97
2019-02-15T09:24:54.540Z,13.98
2019-02-15T09:27:38.117Z,15.60
2019-02-15T09:30:21.619Z,18.52
2019-02-15T09:33:05.909Z,15.13
2019-02-15T09:35:49.598Z,14.63
2019-02-15T09:38:33.918Z,11.08
2019-02-15T09:41:19.205Z,14.50
2019-02-15T09:44:02.646Z,14.13
2019-02-15T09:46:46.006Z,11.78
2019-02-15T09:49:29.162Z,12.58
2019-02-15T09:52:13.830Z,12.33
2019-02-15T09:54:56.768Z,12.93
2019-02-15T09:57:39.646Z,15.83
2019-02-15T10:00:22.970Z,14.33
2019-02-15T10:03:08.485Z,11.03
2019-02-15T10:05:52.006Z,12.15
2019-02-15T10:08:36.432Z,12.40
2019-02-15T10:11:19.674Z,13.18
2019-02-15T10:14:02.654Z,14.83
2019-02-15T10:16:46.206Z,12.45
2019-02-15T10:19:29.640Z,10.70
2019-02-15T10:22:13.046Z,12.90
2019-02-15T10:24:55.905Z,14.43
2019-02-15T10:27:39.925Z,11.33
2019-02-15T10:30:22.984Z,12.53
2019-02-15T10:33:07.004Z,12.95
2019-02-15T10:35:52.322Z,12.28
2019-02-15T10:38:35.703Z,13.45
2019-02-15T10:41:18.790Z,11.68
2019-02-15T10:44:02.008Z,14.30
2019-02-15T10:46:44.759Z,12.40
2019-02-15T10:49:27.741Z,12.30
2019-02-15T10:52:10.942Z,11.38
2019-02-15T10:54:54.978Z,11.65
2019-02-15T10:57:38.165Z,11.68
2019-02-15T11:00:21.565Z,12.47
2019-02-15T11:03:06.744Z,11.55
2019-02-15T11:05:51.522Z,14.40
2019-02-15T11:08:34.382Z,11.13
2019-02-15T11:11:17.040Z,12.13
2019-02-15T11:14:00.507Z,13.40
2019-02-15T11:16:47.227Z,14.38
2019-02-15T11:19:29.180Z,11.25
2019-02-15T11:22:12.715Z,10.82
2019-02-15T11:24:55.462Z,16.23
2019-02-15T11:27:38.274Z,14.83
2019-02-15T11:30:23.712Z,12.88
2019-02-15T11:33:06.309Z,15.32
2019-02-15T11:35:49.045Z,13.75
2019-02-15T11:38:32.514Z,11.88
2019-02-15T11:41:15.269Z,11.75
2019-02-15T11:43:58.223Z,12.03
2019-02-15T11:46:41.380Z,13.62
2019-02-15T11:49:24.674Z,10.48
2019-02-15T11:52:10.055Z,13.22
2019-02-15T11:54:53.116Z,16.12
2019-02-15T11:57:37.153Z,13.18
2019-02-15T12:00:24.818Z,13.03
2019-02-15T12:03:26.781Z,9.98
2019-02-15T12:06:10.328Z,12.53
2019-02-15T12:08:54.605Z,14.47
2019-02-15T12:11:38.130Z,9.25
2019-02-15T12:14:22.746Z,12.23
2019-02-15T12:17:07.987Z,9.85
2019-02-15T12:19:53.040Z,11.53
2019-02-15T12:22:36.615Z,9.45
2019-02-15T12:25:19.717Z,13.32
2019-02-15T12:28:02.849Z,11.70
2019-02-15T12:30:46.224Z,9.38
2019-02-15T12:33:30.195Z,9.40
2019-02-15T12:36:12.937Z,12.35
2019-02-15T12:38:56.135Z,10.95
2019-02-15T12:41:38.961Z,11.48
2019-02-15T12:44:22.630Z,8.43
2019-02-15T12:47:14.816Z,9.03
2019-02-15T12:49:51.733Z,8.53
2019-02-15T12:52:36.693Z,9.40
2019-02-15T12:55:21.826Z,9.55
2019-02-15T12:58:07.048Z,10.63
2019-02-15T13:00:52.076Z,9.75
2019-02-15T13:03:36.699Z,11.28
2019-02-15T13:06:28.235Z,8.97
2019-02-15T13:09:07.113Z,11.93
2019-02-15T13:11:51.951Z,6.10
2019-02-15T13:14:34.804Z,10.70
2019-02-15T13:17:24.407Z,8.28
2019-02-15T13:20:02.584Z,8.33
2019-02-15T13:22:46.596Z,7.65
2019-02-15T13:25:36.539Z,9.10
2019-02-15T13:28:15.852Z,12.18
2019-02-15T13:30:58.464Z,8.58
2019-02-15T13:33:42.591Z,9.58
2019-02-15T13:36:27.637Z,11.70
2019-02-15T13:39:13.080Z,11.22
2019-02-15T13:41:55.896Z,10.55
2019-02-15T13:44:38.805Z,10.23
2019-02-15T13:47:23.840Z,11.95
2019-02-15T13:50:08.641Z,12.82
2019-02-15T13:52:51.177Z,12.93
2019-02-15T13:55:41.599Z,11.57
2019-02-15T13:58:28.360Z,14.87
2019-02-15T14:01:12.303Z,11.65
2019-02-15T14:03:58.292Z,11.03
2019-02-15T14:06:45.669Z,14.18
2019-02-15T14:09:28.403Z,10.60
2019-02-15T14:12:12.726Z,10.10
2019-02-15T14:14:55.566Z,13.68
2019-02-15T14:17:44.962Z,10.98
2019-02-15T14:20:25.853Z,12.23
2019-02-15T14:23:09.449Z,14.87
2019-02-15T14:25:52.260Z,9.80
2019-02-15T14:28:35.748Z,12.30
2019-02-15T14:31:21.001Z,11.53
2019-02-15T14:34:04.203Z,10.70
2019-02-15T14:36:46.742Z,13.50
2019-02-15T14:39:29.792Z,8.50
2019-02-15T14:42:12.592Z,13.18
2019-02-15T14:44:55.597Z,12.63
2019-02-15T14:47:38.606Z,14.93
2019-02-15T14:50:21.369Z,12.28
2019-02-15T14:53:04.179Z,11.73
2019-02-15T14:55:48.191Z,10.90
2019-02-15T14:58:33.569Z,10.40
2019-02-15T15:01:18.205Z,10.73
2019-02-15T15:04:01.377Z,10.57
2019-02-15T15:06:44.844Z,11.80
2019-02-15T15:09:27.352Z,13.70
2019-02-15T15:12:10.754Z,9.80
2019-02-15T15:14:55.613Z,9.67
2019-02-15T15:17:40.645Z,9.47
2019-02-15T15:20:25.803Z,10.03
2019-02-15T15:23:10.478Z,12.83
2019-02-15T15:28:39.307Z,11.33
2019-02-15T15:31:22.458Z,10.50
2019-02-15T15:34:05.807Z,9.80
2019-02-15T15:36:49.994Z,10.13
2019-02-15T15:39:34.739Z,13.93
2019-02-15T15:42:17.428Z,10.57
2019-02-15T15:45:00.287Z,12.37
2019-02-15T15:47:44.181Z,10.83
2019-02-15T15:50:27.126Z,10.03
2019-02-15T15:53:11.240Z,10.38
2019-02-15T15:55:55.938Z,10.63
2019-02-15T15:58:38.656Z,12.17
2019-02-15T16:01:23.595Z,13.53
2019-02-15T16:04:08.368Z,12.53
2019-02-15T16:06:53.620Z,13.00
2019-02-15T16:09:38.301Z,10.90
2019-02-15T16:12:21.636Z,10.27
2019-02-15T16:15:04.622Z,10.87
2019-02-15T16:17:49.539Z,10.20
2019-02-15T16:20:32.812Z,11.60
2019-02-15T16:23:18.244Z,12.07
2019-02-15T16:26:00.834Z,11.07
2019-02-15T16:28:44.185Z,12.50
2019-02-15T16:31:26.914Z,11.97
2019-02-15T16:34:09.498Z,10.10
2019-02-15T16:36:52.818Z,11.27
2019-02-15T16:39:36.136Z,13.97
2019-02-15T16:42:19.456Z,14.73
2019-02-15T16:45:03.248Z,11.03
2019-02-15T16:47:48.321Z,11.33
2019-02-15T16:50:32.634Z,10.70
2019-02-15T16:53:15.536Z,14.30
2019-02-15T16:55:59.600Z,11.80
2019-02-15T16:58:44.601Z,11.40
2019-02-15T17:01:28.317Z,17.00
2019-02-15T17:04:13.843Z,11.47
2019-02-15T17:06:57.287Z,13.60
2019-02-15T17:09:40.113Z,14.80
2019-02-15T17:12:22.776Z,8.77
2019-02-15T17:15:07.711Z,13.70
2019-02-15T17:17:50.337Z,14.60
2019-02-15T17:20:33.566Z,12.97
2019-02-15T17:23:16.527Z,19.97
2019-02-15T17:26:00.418Z,14.13
2019-02-15T17:28:44.387Z,19.33
2019-02-15T17:31:29.560Z,17.20
2019-02-15T17:34:12.282Z,14.53
2019-02-15T17:36:56.728Z,14.60
2019-02-15T17:39:39.603Z,39.57
2019-02-15T17:42:22.949Z,31.33
2019-02-15T17:45:05.554Z,20.15
2019-02-15T17:47:50.543Z,14.50
2019-02-15T17:50:33.252Z,16.47
2019-02-15T17:53:16.520Z,15.47
2019-02-15T17:56:00.174Z,19.17
2019-02-15T17:58:42.769Z,17.87
2019-02-15T18:01:27.457Z,21.67
2019-02-15T18:04:10.665Z,18.77
2019-02-15T18:06:53.944Z,17.40
2019-02-15T18:09:37.425Z,16.53
2019-02-15T18:12:20.801Z,15.03
2019-02-15T18:15:05.030Z,17.77
2019-02-15T18:17:49.774Z,18.67
2019-02-15T18:20:32.805Z,19.67
2019-02-15T18:23:15.702Z,19.98
2019-02-15T18:25:58.958Z,23.90
2019-02-15T18:28:42.089Z,18.83
2019-02-15T18:31:25.053Z,17.07
2019-02-15T18:34:07.860Z,23.33
2019-02-15T18:36:51.226Z,19.10
2019-02-15T18:39:34.161Z,18.82
2019-02-15T18:42:17.012Z,18.83
2019-02-15T18:44:59.843Z,17.70
2019-02-15T18:47:43.543Z,17.30
2019-02-15T18:50:27.953Z,19.70
2019-02-15T18:53:10.804Z,19.93
2019-02-15T18:55:54.945Z,20.13
2019-02-15T18:58:39.744Z,21.17
2019-02-15T19:01:25.417Z,17.63
2019-02-15T19:04:09.549Z,15.00
2019-02-15T19:06:53.081Z,14.60
2019-02-15T19:09:38.348Z,17.50
2019-02-15T19:12:23.695Z,15.97
2019-02-15T19:15:06.455Z,15.70
2019-02-15T19:17:49.550Z,20.15
2019-02-15T19:20:32.489Z,20.13
2019-02-15T19:23:16.113Z,14.87
2019-02-15T19:25:59.691Z,16.70
2019-02-15T19:28:43.259Z,16.57
2019-02-15T19:31:25.763Z,13.53
2019-02-15T19:34:08.925Z,16.55
2019-02-15T19:36:54.113Z,18.43
2019-02-15T19:39:36.914Z,14.93
2019-02-15T19:42:19.817Z,15.87
2019-02-15T19:45:04.206Z,14.53
2019-02-15T19:47:47.581Z,16.10
2019-02-15T19:50:30.567Z,14.67
2019-02-15T19:53:13.923Z,15.33
2019-02-15T19:55:57.975Z,15.20
2019-02-15T19:58:43.800Z,13.97
2019-02-15T20:01:29.471Z,11.50
2019-02-15T20:04:12.465Z,14.47
2019-02-15T20:06:56.426Z,16.00
2019-02-15T20:09:42.075Z,15.47
2019-02-15T20:12:25.492Z,12.50
2019-02-15T20:15:10.522Z,14.90
2019-02-15T20:17:55.283Z,14.90
2019-02-15T20:20:38.611Z,16.97
2019-02-15T20:23:25.173Z,18.27
2019-02-15T20:26:07.984Z,18.63
2019-02-15T20:28:51.039Z,15.77
2019-02-15T20:31:33.912Z,16.70
2019-02-15T20:34:17.302Z,14.97
2019-02-15T20:36:59.926Z,15.53
2019-02-15T20:39:44.983Z,15.13
2019-02-15T20:42:29.657Z,14.63
2019-02-15T20:45:12.589Z,17.97
2019-02-15T20:47:56.038Z,14.10
2019-02-15T20:50:39.918Z,11.90
2019-02-15T20:53:25.416Z,13.60
2019-02-15T20:56:09.448Z,13.90
2019-02-15T20:58:54.847Z,13.00
2019-02-15T21:01:37.938Z,16.20
2019-02-15T21:04:20.571Z,12.50
2019-02-15T21:07:04.312Z,12.10
2019-02-15T21:09:47.878Z,13.60
2019-02-15T21:12:31.267Z,15.83
2019-02-15T21:15:14.676Z,15.87
2019-02-15T21:17:58.443Z,13.27
2019-02-15T21:20:43.243Z,13.93
2019-02-15T21:23:26.695Z,13.37
2019-02-15T21:26:11.633Z,14.15
2019-02-15T21:28:54.402Z,12.50
2019-02-15T21:31:37.105Z,14.33
2019-02-15T21:34:21.130Z,9.63
2019-02-15T21:37:03.761Z,12.37
2019-02-15T21:39:46.696Z,10.63
2019-02-15T21:42:30.202Z,11.50
2019-02-15T21:45:15.072Z,11.47
2019-02-15T21:47:57.808Z,9.53
2019-02-15T21:50:40.765Z,8.57
2019-02-15T21:53:24.234Z,8.90
2019-02-15T21:56:09.092Z,10.50
2019-02-15T21:58:52.008Z,10.37
2019-02-15T22:01:34.818Z,8.00
2019-02-15T22:04:18.052Z,12.40
2019-02-15T22:07:00.873Z,9.77
2019-02-15T22:09:44.755Z,9.73
2019-02-15T22:12:27.568Z,9.57
2019-02-15T22:15:10.658Z,8.83
2019-02-15T22:20:37.811Z,12.35
2019-02-15T22:23:23.059Z,10.20
2019-02-15T22:26:08.099Z,11.03
2019-02-15T22:28:53.240Z,9.30
2019-02-15T22:31:36.685Z,10.27
2019-02-15T22:34:19.375Z,7.67
2019-02-15T22:37:02.378Z,9.03
2019-02-15T22:39:45.109Z,8.53
2019-02-15T22:42:28.251Z,13.20
2019-02-15T22:45:13.176Z,9.10
2019-02-15T22:47:58.687Z,9.67
2019-02-15T22:50:41.789Z,12.07
2019-02-15T22:53:25.019Z,10.47
2019-02-15T22:56:08.050Z,10.53
2019-02-15T22:58:50.903Z,13.35
2019-02-15T23:01:33.453Z,12.50
2019-02-15T23:04:18.658Z,9.60
2019-02-15T23:07:02.063Z,11.03
2019-02-15T23:09:44.979Z,11.07
2019-02-15T23:12:27.917Z,12.77
2019-02-15T23:15:11.671Z,12.37
2019-02-15T23:17:56.621Z,13.13
2019-02-15T23:20:45.169Z,9.90
2019-02-15T23:23:51.417Z,12.87
2019-02-15T23:26:36.440Z,10.60
2019-02-15T23:29:19.202Z,10.30
2019-02-15T23:32:02.558Z,12.00
2019-02-15T23:34:45.977Z,9.87
2019-02-15T23:37:29.047Z,7.73
2019-02-15T23:40:11.898Z,9.80
2019-02-15T23:42:54.681Z,10.33
2019-02-15T23:45:38.013Z,10.23
2019-02-15T23:48:20.903Z,10.47
2019-02-15T23:51:03.481Z,10.07
2019-02-15T23:53:48.042Z,12.73
2019-02-15T23:56:31.138Z,11.30
2019-02-15T23:59:15.233Z,9.73
